createdAt,value
2018-07-20T00:01:16.869Z,4.60
2018-07-20T00:03:45.184Z,5.17
2018-07-20T00:06:13.475Z,4.60
2018-07-20T00:08:41.801Z,5.20
2018-07-20T00:11:10.168Z,4.63
2018-07-20T00:13:38.549Z,4.40
2018-07-20T00:16:06.845Z,4.80
2018-07-20T00:18:35.171Z,4.53
2018-07-20T00:21:03.960Z,4.10
2018-07-20T00:23:32.320Z,4.80
2018-07-20T00:26:00.606Z,4.93
2018-07-20T00:28:28.932Z,4.43
2018-07-20T00:30:57.242Z,4.57
2018-07-20T00:33:25.565Z,5.10
2018-07-20T00:35:53.861Z,4.80
2018-07-20T00:38:22.216Z,4.70
2018-07-20T00:40:50.610Z,4.30
2018-07-20T00:43:18.925Z,5.10
2018-07-20T00:45:47.232Z,4.40
2018-07-20T00:48:15.529Z,4.63
2018-07-20T00:50:43.873Z,4.90
2018-07-20T00:53:12.276Z,5.07
2018-07-20T00:55:40.590Z,4.70
2018-07-20T00:58:08.904Z,4.67
2018-07-20T01:00:37.243Z,4.60
2018-07-20T01:03:05.806Z,5.67
2018-07-20T01:05:34.203Z,5.33
2018-07-20T01:08:02.529Z,4.90
2018-07-20T01:10:30.852Z,4.90
2018-07-20T01:12:59.169Z,4.90
2018-07-20T01:15:27.476Z,5.07
2018-07-20T01:17:55.774Z,4.50
2018-07-20T01:20:24.112Z,4.33
2018-07-20T01:22:52.468Z,5.30
2018-07-20T01:25:20.796Z,4.70
2018-07-20T01:27:49.094Z,4.50
2018-07-20T01:30:17.424Z,5.07
2018-07-20T01:32:45.720Z,5.53
2018-07-20T01:35:14.050Z,5.30
2018-07-20T01:37:42.341Z,4.70
2018-07-20T01:40:10.727Z,5.50
2018-07-20T01:42:39.019Z,5.47
2018-07-20T01:45:07.357Z,5.80
2018-07-20T01:47:35.851Z,5.27
2018-07-20T01:50:04.724Z,5.37
2018-07-20T01:52:33.209Z,4.83
2018-07-20T01:55:01.517Z,4.97
2018-07-20T01:57:29.962Z,4.73
2018-07-20T01:59:58.408Z,4.80
2018-07-20T02:02:26.746Z,5.40
2018-07-20T02:04:55.049Z,4.20
2018-07-20T02:07:23.432Z,5.10
2018-07-20T02:09:51.717Z,4.87
2018-07-20T02:12:20.027Z,5.50
2018-07-20T02:14:48.317Z,5.53
2018-07-20T02:17:16.652Z,6.17
2018-07-20T02:19:45.078Z,5.17
2018-07-20T02:22:13.413Z,5.10
2018-07-20T02:24:41.705Z,5.77
2018-07-20T02:27:10.033Z,5.10
2018-07-20T02:29:38.344Z,4.57
2018-07-20T02:32:06.652Z,4.30
2018-07-20T02:34:34.969Z,5.00
2018-07-20T02:37:03.439Z,4.90
2018-07-20T02:39:31.720Z,6.43
2018-07-20T02:42:00.029Z,5.00
2018-07-20T02:44:28.312Z,5.10
2018-07-20T02:46:56.635Z,6.03
2018-07-20T02:49:24.949Z,5.40
2018-07-20T02:51:53.266Z,4.87
2018-07-20T02:54:21.569Z,4.80
2018-07-20T02:56:49.881Z,5.60
2018-07-20T02:59:18.200Z,5.20
2018-07-20T03:01:46.575Z,5.83
2018-07-20T03:04:14.889Z,4.87
2018-07-20T03:06:43.243Z,5.30
2018-07-20T03:09:12.849Z,5.70
2018-07-20T03:11:41.584Z,5.23
2018-07-20T03:14:10.105Z,5.07
2018-07-20T03:16:38.616Z,5.10
2018-07-20T03:19:07.169Z,5.00
2018-07-20T03:21:35.488Z,4.70
2018-07-20T03:24:03.945Z,5.00
2018-07-20T03:26:32.284Z,5.77
2018-07-20T03:29:00.642Z,5.20
2018-07-20T03:31:28.982Z,5.13
2018-07-20T03:33:57.300Z,4.30
2018-07-20T03:36:25.625Z,5.70
2018-07-20T03:38:53.943Z,5.27
2018-07-20T03:41:22.270Z,4.50
2018-07-20T03:43:50.590Z,6.23
2018-07-20T03:46:18.981Z,5.47
2018-07-20T03:48:47.308Z,5.00
2018-07-20T03:51:15.601Z,4.90
2018-07-20T03:53:43.936Z,5.50
2018-07-20T03:56:12.252Z,4.90
2018-07-20T03:58:40.604Z,5.50
2018-07-20T04:01:08.920Z,5.03
2018-07-20T04:03:37.253Z,5.77
2018-07-20T04:06:05.611Z,4.93
2018-07-20T04:08:33.921Z,4.93
2018-07-20T04:11:02.356Z,5.33
2018-07-20T04:13:30.686Z,5.10
2018-07-20T04:15:58.990Z,6.33
2018-07-20T04:18:27.301Z,5.27
2018-07-20T04:20:58.040Z,5.47
2018-07-20T04:23:26.550Z,5.30
2018-07-20T04:25:55.024Z,5.00
2018-07-20T04:28:23.376Z,5.10
2018-07-20T04:30:51.665Z,4.93
2018-07-20T04:33:19.984Z,5.60
2018-07-20T04:35:48.283Z,5.27
2018-07-20T04:38:16.568Z,5.33
2018-07-20T04:40:44.896Z,4.83
2018-07-20T04:43:13.698Z,5.00
2018-07-20T04:45:42.025Z,5.47
2018-07-20T04:48:10.336Z,4.93
2018-07-20T04:50:38.719Z,4.73
2018-07-20T04:53:07.009Z,4.90
2018-07-20T04:55:35.334Z,5.03
2018-07-20T04:58:03.664Z,6.30
2018-07-20T05:00:32.021Z,5.97
2018-07-20T05:03:00.423Z,6.17
2018-07-20T05:05:29.672Z,7.53
2018-07-20T05:07:57.965Z,7.20
2018-07-20T05:10:26.289Z,5.30
2018-07-20T05:12:54.635Z,6.27
2018-07-20T05:15:22.980Z,9.30
2018-07-20T05:17:51.341Z,6.90
2018-07-20T05:20:19.656Z,6.83
2018-07-20T05:22:47.954Z,7.03
2018-07-20T05:25:16.306Z,10.50
2018-07-20T05:27:44.597Z,17.40
2018-07-20T05:30:12.942Z,6.83
2018-07-20T05:32:41.272Z,8.07
2018-07-20T05:35:10.189Z,12.07
2018-07-20T05:37:38.485Z,5.03
2018-07-20T05:40:06.829Z,10.63
2018-07-20T05:42:35.123Z,7.33
2018-07-20T05:45:03.604Z,6.10
2018-07-20T05:47:31.916Z,6.90
2018-07-20T05:50:00.348Z,5.00
2018-07-20T05:52:28.676Z,5.40
2018-07-20T05:54:57.041Z,5.27
2018-07-20T05:57:25.349Z,6.03
2018-07-20T05:59:53.663Z,5.20
2018-07-20T06:02:21.993Z,4.97
2018-07-20T06:04:50.301Z,4.80
2018-07-20T06:07:18.657Z,4.67
2018-07-20T06:09:46.957Z,4.07
2018-07-20T06:12:15.292Z,4.47
2018-07-20T06:14:43.607Z,3.60
2018-07-20T06:17:12.408Z,4.40
2018-07-20T06:19:40.688Z,4.73
2018-07-20T06:22:09.023Z,4.70
2018-07-20T06:24:37.328Z,3.60
2018-07-20T06:27:05.640Z,4.40
2018-07-20T06:29:34.046Z,4.33
2018-07-20T06:32:02.335Z,4.20
2018-07-20T06:34:30.650Z,4.00
2018-07-20T06:36:58.983Z,4.20
2018-07-20T06:39:27.285Z,4.63
2018-07-20T06:41:55.655Z,4.30
2018-07-20T06:44:23.980Z,4.40
2018-07-20T06:46:52.351Z,5.73
2018-07-20T06:49:21.349Z,4.10
2018-07-20T06:51:49.669Z,4.37
2018-07-20T06:54:18.561Z,3.80
2018-07-20T06:56:46.911Z,4.03
2018-07-20T06:59:15.232Z,3.77
2018-07-20T07:01:43.585Z,4.03
2018-07-20T07:04:11.893Z,4.40
2018-07-20T07:06:40.271Z,3.93
2018-07-20T07:09:09.429Z,4.20
2018-07-20T07:11:38.049Z,4.67
2018-07-20T07:14:06.354Z,4.40
2018-07-20T07:16:34.713Z,3.67
2018-07-20T07:19:03.236Z,3.67
2018-07-20T07:21:31.535Z,3.90
2018-07-20T07:23:59.841Z,4.20
2018-07-20T07:26:28.149Z,3.53
2018-07-20T07:28:56.470Z,4.77
2018-07-20T07:31:24.751Z,3.83
2018-07-20T07:33:53.057Z,3.50
2018-07-20T07:36:21.357Z,3.63
2018-07-20T07:38:49.689Z,3.80
2018-07-20T07:41:17.993Z,3.70
2018-07-20T07:43:46.350Z,4.17
2018-07-20T07:46:14.649Z,4.03
2018-07-20T07:48:42.957Z,3.73
2018-07-20T07:51:11.265Z,4.73
2018-07-20T07:53:39.602Z,3.70
2018-07-20T07:56:07.913Z,4.40
2018-07-20T07:58:36.265Z,7.07
2018-07-20T08:01:04.572Z,4.70
2018-07-20T08:03:32.931Z,4.40
2018-07-20T08:06:01.197Z,4.20
2018-07-20T08:08:29.524Z,4.70
2018-07-20T08:10:57.892Z,4.67
2018-07-20T08:13:26.222Z,3.57
2018-07-20T08:15:54.590Z,3.20
2018-07-20T08:18:22.862Z,5.23
2018-07-20T08:20:51.181Z,4.10
2018-07-20T08:23:19.490Z,3.70
2018-07-20T08:25:47.778Z,3.57
2018-07-20T08:28:16.082Z,3.60
2018-07-20T08:30:44.375Z,3.10
2018-07-20T08:33:12.760Z,3.60
2018-07-20T08:35:41.068Z,3.53
2018-07-20T08:38:09.384Z,3.70
2018-07-20T08:40:37.716Z,3.87
2018-07-20T08:43:06.075Z,3.03
2018-07-20T08:45:34.637Z,3.30
2018-07-20T08:50:37.756Z,3.60
2018-07-20T08:53:06.124Z,3.50
2018-07-20T08:55:34.430Z,3.43
2018-07-20T08:58:02.763Z,3.00
2018-07-20T09:00:31.088Z,3.67
2018-07-20T09:02:59.392Z,4.10
2018-07-20T09:05:27.756Z,4.50
2018-07-20T09:07:56.047Z,8.77
2018-07-20T09:10:24.432Z,3.50
2018-07-20T09:12:52.852Z,3.93
2018-07-20T09:15:21.220Z,6.00
2018-07-20T09:17:50.155Z,2.63
2018-07-20T09:20:18.485Z,4.33
2018-07-20T09:22:46.800Z,3.80
2018-07-20T09:25:15.124Z,4.13
2018-07-20T09:27:43.671Z,4.00
2018-07-20T09:30:12.025Z,3.20
2018-07-20T09:32:40.337Z,3.87
2018-07-20T09:35:08.648Z,2.77
2018-07-20T09:37:37.186Z,3.13
2018-07-20T09:40:05.741Z,3.10
2018-07-20T09:42:34.252Z,3.37
2018-07-20T09:45:02.638Z,2.80
2018-07-20T09:47:30.964Z,2.70
2018-07-20T09:49:59.314Z,3.87
2018-07-20T09:52:27.621Z,2.70
2018-07-20T09:54:56.155Z,4.33
2018-07-20T09:57:24.460Z,4.17
2018-07-20T09:59:52.849Z,2.77
2018-07-20T10:02:21.170Z,2.93
2018-07-20T10:04:49.673Z,2.93
2018-07-20T10:07:17.990Z,2.70
2018-07-20T10:09:46.316Z,3.57
2018-07-20T10:12:14.613Z,3.23
2018-07-20T10:14:42.937Z,3.03
2018-07-20T10:17:11.250Z,2.90
2018-07-20T10:19:39.604Z,2.93
2018-07-20T10:22:07.997Z,3.70
2018-07-20T10:24:36.307Z,3.40
2018-07-20T10:27:04.655Z,3.90
2018-07-20T10:29:33.161Z,3.43
2018-07-20T10:32:01.454Z,3.90
2018-07-20T10:34:29.777Z,3.97
2018-07-20T10:36:58.095Z,3.00
2018-07-20T10:39:26.649Z,3.20
2018-07-20T10:41:54.973Z,3.03
2018-07-20T10:44:26.468Z,3.40
2018-07-20T10:46:54.836Z,3.00
2018-07-20T10:49:23.121Z,2.67
2018-07-20T10:51:51.443Z,3.10
2018-07-20T10:54:19.781Z,2.60
2018-07-20T10:56:48.105Z,3.00
2018-07-20T10:59:16.476Z,3.40
2018-07-20T11:01:44.833Z,2.50
2018-07-20T11:04:13.142Z,3.23
2018-07-20T11:06:41.465Z,2.80
2018-07-20T11:09:09.811Z,2.60
2018-07-20T11:11:38.148Z,2.80
2018-07-20T11:14:06.467Z,3.53
2018-07-20T11:16:34.800Z,2.43
2018-07-20T11:19:03.161Z,2.10
2018-07-20T11:21:31.497Z,3.10
2018-07-20T11:23:59.808Z,2.70
2018-07-20T11:26:28.124Z,2.50
2018-07-20T11:28:56.426Z,3.00
2018-07-20T11:31:26.430Z,2.60
2018-07-20T11:33:54.724Z,2.83
2018-07-20T11:36:23.045Z,3.10
2018-07-20T11:38:51.518Z,2.97
2018-07-20T11:41:19.830Z,3.10
2018-07-20T11:43:48.145Z,2.93
2018-07-20T11:46:16.481Z,2.70
2018-07-20T11:48:44.780Z,3.10
2018-07-20T11:51:13.079Z,3.07
2018-07-20T11:53:41.381Z,3.30
2018-07-20T11:56:09.735Z,3.47
2018-07-20T11:58:38.050Z,2.67
2018-07-20T12:01:06.448Z,3.43
2018-07-20T12:03:34.742Z,3.77
2018-07-20T12:06:03.398Z,2.73
2018-07-20T12:08:31.713Z,3.70
2018-07-20T12:11:00.072Z,3.20
2018-07-20T12:13:28.449Z,3.50
2018-07-20T12:15:56.781Z,4.30
2018-07-20T12:18:25.100Z,3.07
2018-07-20T12:20:53.453Z,3.40
2018-07-20T12:23:21.883Z,2.90
2018-07-20T12:25:50.181Z,3.93
2018-07-20T12:28:18.557Z,3.57
2018-07-20T12:30:46.870Z,3.40
2018-07-20T12:33:15.178Z,3.13
2018-07-20T12:35:43.472Z,3.67
2018-07-20T12:38:11.808Z,3.40
2018-07-20T12:40:40.231Z,2.90
2018-07-20T12:43:08.596Z,3.10
2018-07-20T12:45:36.889Z,4.60
2018-07-20T12:48:05.212Z,3.53
2018-07-20T12:50:33.507Z,3.50
2018-07-20T12:53:02.511Z,2.90
2018-07-20T12:55:30.799Z,3.87
2018-07-20T12:57:59.121Z,3.40
2018-07-20T13:00:27.453Z,3.03
2018-07-20T13:02:55.777Z,3.13
2018-07-20T13:05:24.085Z,3.20
2018-07-20T13:07:52.408Z,3.77
2018-07-20T13:10:20.705Z,2.93
2018-07-20T13:12:49.042Z,3.77
2018-07-20T13:15:17.360Z,3.20
2018-07-20T13:17:45.712Z,2.80
2018-07-20T13:20:14.000Z,2.90
2018-07-20T13:22:42.325Z,3.33
2018-07-20T13:25:10.622Z,3.57
2018-07-20T13:27:38.947Z,2.90
2018-07-20T13:30:07.676Z,3.27
2018-07-20T13:32:36.218Z,2.70
2018-07-20T13:35:04.541Z,3.30
2018-07-20T13:37:33.937Z,2.90
2018-07-20T13:40:02.241Z,2.63
2018-07-20T13:42:30.575Z,3.30
2018-07-20T13:44:58.913Z,2.57
2018-07-20T13:47:27.220Z,2.80
2018-07-20T13:49:55.564Z,3.13
2018-07-20T13:52:23.859Z,2.57
2018-07-20T13:54:52.197Z,2.63
2018-07-20T13:57:20.519Z,2.80
2018-07-20T13:59:48.897Z,3.30
2018-07-20T14:02:17.198Z,2.97
2018-07-20T14:04:45.900Z,3.30
2018-07-20T14:07:14.182Z,3.17
2018-07-20T14:09:42.520Z,2.50
2018-07-20T14:12:10.833Z,3.40
2018-07-20T14:14:39.153Z,3.00
2018-07-20T14:17:07.455Z,4.30
2018-07-20T14:19:36.024Z,3.37
2018-07-20T14:22:04.569Z,3.10
2018-07-20T14:24:32.889Z,3.20
2018-07-20T14:27:01.169Z,3.23
2018-07-20T14:29:29.490Z,5.80
2018-07-20T14:31:57.812Z,6.43
2018-07-20T14:34:26.274Z,3.20
2018-07-20T14:36:54.563Z,3.07
2018-07-20T14:39:22.911Z,3.10
2018-07-20T14:41:51.313Z,3.63
2018-07-20T14:44:19.639Z,3.67
2018-07-20T14:46:47.937Z,3.50
2018-07-20T14:49:16.292Z,3.33
2018-07-20T14:51:44.596Z,4.20
2018-07-20T14:54:12.920Z,3.30
2018-07-20T14:56:41.203Z,3.23
2018-07-20T14:59:09.544Z,3.67
2018-07-20T15:01:37.926Z,3.23
2018-07-20T15:04:06.558Z,3.60
2018-07-20T15:06:34.836Z,3.33
2018-07-20T15:09:04.018Z,3.47
2018-07-20T15:11:32.317Z,3.50
2018-07-20T15:14:00.653Z,3.10
2018-07-20T15:16:29.003Z,3.63
2018-07-20T15:18:57.755Z,3.50
2018-07-20T15:21:26.322Z,3.30
2018-07-20T15:23:54.709Z,3.60
2018-07-20T15:26:23.129Z,3.47
2018-07-20T15:28:51.437Z,3.00
2018-07-20T15:31:19.814Z,4.53
2018-07-20T15:33:48.154Z,3.30
2018-07-20T15:36:16.495Z,3.60
2018-07-20T15:38:44.817Z,3.70
2018-07-20T15:41:13.201Z,3.43
2018-07-20T15:43:41.914Z,3.70
2018-07-20T15:46:10.764Z,3.07
2018-07-20T15:48:39.072Z,3.37
2018-07-20T15:51:07.400Z,3.57
2018-07-20T15:53:37.049Z,3.30
2018-07-20T15:56:04.106Z,3.73
2018-07-20T15:58:32.449Z,3.23
2018-07-20T16:01:00.826Z,3.37
2018-07-20T16:03:29.135Z,3.97
2018-07-20T16:05:57.476Z,3.20
2018-07-20T16:08:25.777Z,3.10
2018-07-20T16:10:54.104Z,4.40
2018-07-20T16:13:22.384Z,3.67
2018-07-20T16:15:50.749Z,3.67
2018-07-20T16:18:19.255Z,3.70
2018-07-20T16:20:47.569Z,3.50
2018-07-20T16:23:15.878Z,3.70
2018-07-20T16:25:44.267Z,3.10
2018-07-20T16:28:12.521Z,3.10
2018-07-20T16:30:40.840Z,3.40
2018-07-20T16:33:09.180Z,3.70
2018-07-20T16:35:37.492Z,3.40
2018-07-20T16:38:05.801Z,3.60
2018-07-20T16:40:34.680Z,3.40
2018-07-20T16:43:04.906Z,3.67
2018-07-20T16:45:33.224Z,3.73
2018-07-20T16:48:01.533Z,3.63
2018-07-20T16:50:29.857Z,3.60
2018-07-20T16:52:58.169Z,3.30
2018-07-20T16:55:26.481Z,3.10
2018-07-20T16:57:54.865Z,3.70
2018-07-20T17:00:23.680Z,3.40
2018-07-20T17:02:51.992Z,3.97
2018-07-20T17:05:20.292Z,3.20
2018-07-20T17:07:48.722Z,2.97
2018-07-20T17:10:17.085Z,4.30
2018-07-20T17:12:45.399Z,3.40
2018-07-20T17:15:13.702Z,3.70
2018-07-20T17:17:42.016Z,3.70
2018-07-20T17:20:10.314Z,3.90
2018-07-20T17:22:38.652Z,3.70
2018-07-20T17:25:07.089Z,4.10
2018-07-20T17:27:35.412Z,3.57
2018-07-20T17:30:03.759Z,4.47
2018-07-20T17:32:32.073Z,3.80
2018-07-20T17:35:00.389Z,4.00
2018-07-20T17:37:28.735Z,3.67
2018-07-20T17:39:57.042Z,3.73
2018-07-20T17:42:26.273Z,3.40
2018-07-20T17:44:54.572Z,3.53
2018-07-20T17:47:22.883Z,3.47
2018-07-20T17:49:51.168Z,4.13
2018-07-20T17:52:19.591Z,3.20
2018-07-20T17:54:47.881Z,4.77
2018-07-20T17:57:16.196Z,3.40
2018-07-20T17:59:44.512Z,3.87
2018-07-20T18:02:12.894Z,3.97
2018-07-20T18:04:41.220Z,3.77
2018-07-20T18:07:09.563Z,4.37
2018-07-20T18:09:37.892Z,4.60
2018-07-20T18:12:16.839Z,4.67
2018-07-20T18:14:45.289Z,4.33
2018-07-20T18:17:13.634Z,3.70
2018-07-20T18:19:41.961Z,3.83
2018-07-20T18:22:10.288Z,4.10
2018-07-20T18:24:38.608Z,3.20
2018-07-20T18:27:06.940Z,3.80
2018-07-20T18:29:35.977Z,4.40
2018-07-20T18:32:04.339Z,3.57
2018-07-20T18:34:32.667Z,4.20
2018-07-20T18:37:00.986Z,4.57
2018-07-20T18:39:29.305Z,3.33
2018-07-20T18:41:59.172Z,4.27
2018-07-20T18:44:27.513Z,4.47
2018-07-20T18:46:56.586Z,3.67
2018-07-20T18:49:25.067Z,3.97
2018-07-20T18:51:53.377Z,4.70
2018-07-20T18:54:21.684Z,4.13
2018-07-20T18:56:49.980Z,3.80
2018-07-20T18:59:18.392Z,3.50
2018-07-20T19:01:46.722Z,4.27
2018-07-20T19:04:15.039Z,4.37
2018-07-20T19:06:43.369Z,3.97
2018-07-20T19:09:12.440Z,4.03
2018-07-20T19:11:40.976Z,3.77
2018-07-20T19:14:09.288Z,4.50
2018-07-20T19:16:37.633Z,4.63
2018-07-20T19:19:07.836Z,4.23
2018-07-20T19:21:36.140Z,4.07
2018-07-20T19:24:04.489Z,4.73
2018-07-20T19:26:32.779Z,4.37
2018-07-20T19:29:01.090Z,4.17
2018-07-20T19:31:29.395Z,4.50
2018-07-20T19:33:57.717Z,4.30
2018-07-20T19:36:26.025Z,4.47
2018-07-20T19:38:54.334Z,4.50
2018-07-20T19:41:22.914Z,4.73
2018-07-20T19:43:51.248Z,3.70
2018-07-20T19:46:19.576Z,5.00
2018-07-20T19:48:47.897Z,4.50
2018-07-20T19:51:16.190Z,5.27
2018-07-20T19:53:44.490Z,5.20
2018-07-20T19:56:12.812Z,4.63
2018-07-20T19:58:41.204Z,4.03
2018-07-20T20:01:09.529Z,4.50
2018-07-20T20:03:37.829Z,4.60
2018-07-20T20:06:06.150Z,4.97
2018-07-20T20:08:34.471Z,4.83
2018-07-20T20:11:02.912Z,4.60
2018-07-20T20:13:31.200Z,4.60
2018-07-20T20:15:59.646Z,4.33
2018-07-20T20:18:27.959Z,4.80
2018-07-20T20:20:56.285Z,5.00
2018-07-20T20:23:24.586Z,4.17
2018-07-20T20:25:52.923Z,5.20
2018-07-20T20:28:21.196Z,4.40
2018-07-20T20:30:49.520Z,4.20
2018-07-20T20:33:17.832Z,5.13
2018-07-20T20:35:46.206Z,4.50
2018-07-20T20:38:15.293Z,4.70
2018-07-20T20:40:43.633Z,5.17
2018-07-20T20:43:12.367Z,5.60
2018-07-20T20:45:40.707Z,4.70
2018-07-20T20:48:09.015Z,4.30
2018-07-20T20:50:37.357Z,5.40
2018-07-20T20:53:05.732Z,5.17
2018-07-20T20:55:34.057Z,4.90
2018-07-20T20:58:02.427Z,5.20
2018-07-20T21:00:30.756Z,5.03
2018-07-20T21:02:59.045Z,5.27
2018-07-20T21:05:27.364Z,5.10
2018-07-20T21:07:55.653Z,4.87
2018-07-20T21:10:23.953Z,4.63
2018-07-20T21:12:52.244Z,5.67
2018-07-20T21:15:20.594Z,4.50
2018-07-20T21:17:48.885Z,5.57
2018-07-20T21:20:17.160Z,5.50
2018-07-20T21:22:45.478Z,5.60
2018-07-20T21:25:13.770Z,4.80
2018-07-20T21:27:42.100Z,6.87
2018-07-20T21:30:10.428Z,5.30
2018-07-20T21:32:38.748Z,5.47
2018-07-20T21:35:07.106Z,5.73
2018-07-20T21:37:35.513Z,6.00
2018-07-20T21:40:03.925Z,5.07
2018-07-20T21:42:32.242Z,5.53
2018-07-20T21:45:00.531Z,5.77
2018-07-20T21:47:28.886Z,6.57
2018-07-20T21:49:57.156Z,5.37
2018-07-20T21:52:25.456Z,5.83
2018-07-20T21:54:53.760Z,6.23
2018-07-20T21:57:22.084Z,5.60
2018-07-20T21:59:50.416Z,6.87
2018-07-20T22:02:18.744Z,5.40
2018-07-20T22:04:47.033Z,5.57
2018-07-20T22:07:15.384Z,5.90
2018-07-20T22:09:43.685Z,5.83
2018-07-20T22:12:12.012Z,5.97
2018-07-20T22:14:40.306Z,6.40
2018-07-20T22:17:08.638Z,5.50
2018-07-20T22:19:36.933Z,6.30
2018-07-20T22:22:05.400Z,6.20
2018-07-20T22:24:33.722Z,5.83
2018-07-20T22:27:02.264Z,6.37
2018-07-20T22:29:30.560Z,6.40
2018-07-20T22:31:58.871Z,5.90
2018-07-20T22:34:27.177Z,6.40
2018-07-20T22:36:55.493Z,6.27
2018-07-20T22:39:23.823Z,6.53
2018-07-20T22:41:52.120Z,6.70
2018-07-20T22:44:20.478Z,7.47
2018-07-20T22:46:48.791Z,7.00
2018-07-20T22:49:17.123Z,6.00
2018-07-20T22:51:45.420Z,7.30
2018-07-20T22:54:13.737Z,6.07
2018-07-20T22:56:42.078Z,6.10
2018-07-20T22:59:10.436Z,6.30
2018-07-20T23:01:38.729Z,6.20
2018-07-20T23:04:07.054Z,6.80
2018-07-20T23:06:35.341Z,6.40
2018-07-20T23:09:06.369Z,6.60
2018-07-20T23:11:34.664Z,6.60
2018-07-20T23:14:03.015Z,6.70
2018-07-20T23:16:31.315Z,6.23
2018-07-20T23:18:59.635Z,6.30
2018-07-20T23:21:27.929Z,6.30
2018-07-20T23:23:56.237Z,6.10
2018-07-20T23:26:24.541Z,5.80
2018-07-20T23:28:52.845Z,5.80
2018-07-20T23:31:21.137Z,6.67
2018-07-20T23:33:49.477Z,5.63
2018-07-20T23:36:17.787Z,5.93
2018-07-20T23:38:46.106Z,6.30
2018-07-20T23:41:14.404Z,5.87
2018-07-20T23:43:42.712Z,5.50
2018-07-20T23:46:11.005Z,5.70
2018-07-20T23:48:39.325Z,5.57
2018-07-20T23:51:07.600Z,6.07
2018-07-20T23:53:35.923Z,6.20
2018-07-20T23:56:04.297Z,6.07
2018-07-20T23:58:32.631Z,5.87
